Time;durP1;ratioP1;P1;durP2;ratioP2;P2;SDS_P1;SDS_P2;PMS_P1;PMS_P2;Temp;Humidity;BMP_temperature;BMP_pressure;BME280_temperature;BME280_humidity;BME280_pressure;Samples;Min_cycle;Max_cycle;Signal;HPM_P1;HPM_P2
2022/04/20 00:00:30;;;;;;;;;;;9.70;52.40;;;;;;5012762;28;19913;-79
2022/04/20 00:02:56;;;;;;;;;;;9.70;53.40;;;;;;5030755;28;19920;-79
2022/04/20 00:05:21;;;;;;;;;;;9.60;53.50;;;;;;5033367;28;19971;-79
2022/04/20 00:07:47;;;;;;;;;;;9.50;52.60;;;;;;5033587;28;20441;-79
2022/04/20 00:10:12;;;;;;;;;;;9.40;53.80;;;;;;5031668;28;19909;-79
2022/04/20 00:12:38;;;;;;;;;;;9.30;54.70;;;;;;5031916;28;19920;-79
2022/04/20 00:15:04;;;;;;;;;;;9.20;55.00;;;;;;5030116;28;19960;-79
2022/04/20 00:17:29;;;;;;;;;;;9.20;55.50;;;;;;5014375;28;19920;-79
2022/04/20 00:19:55;;;;;;;;;;;9.10;54.50;;;;;;5014366;28;19979;-79
2022/04/20 00:22:20;;;;;;;;;;;9.10;54.90;;;;;;5012986;28;19910;-80
2022/04/20 00:24:46;;;;;;;;;;;9.10;54.50;;;;;;5035261;28;19913;-79
2022/04/20 00:27:11;;;;;;;;;;;9.30;53.90;;;;;;5034616;28;19909;-79
2022/04/20 00:29:37;;;;;;;;;;;9.10;54.60;;;;;;5017777;28;20358;-79
2022/04/20 00:32:02;;;;;;;;;;;9.10;54.70;;;;;;5013147;28;19909;-79
2022/04/20 00:34:28;;;;;;;;;;;9.10;54.70;;;;;;5012045;28;19909;-79
2022/04/20 00:36:53;;;;;;;;;;;9.20;54.00;;;;;;5012958;28;20012;-79
2022/04/20 00:39:19;;;;;;;;;;;9.20;53.70;;;;;;5013558;28;19910;-79
2022/04/20 00:41:45;;;;;;;;;;;9.40;53.60;;;;;;5010986;28;19918;-79
2022/04/20 00:44:11;;;;;;;;;;;9.40;54.40;;;;;;5013589;28;19920;-79
2022/04/20 00:46:37;;;;;;;;;;;9.20;53.80;;;;;;5013520;28;19924;-79
2022/04/20 00:49:03;;;;;;;;;;;9.00;54.10;;;;;;5012656;28;19913;-79
2022/04/20 00:51:31;;;;;;;;;;;8.90;54.50;;;;;;5012119;28;19924;-79
2022/04/20 00:53:58;;;;;;;;;;;8.90;54.80;;;;;;5013282;28;19914;-79
2022/04/20 00:56:23;;;;;;;;;;;8.80;54.60;;;;;;5013799;28;19909;-79
2022/04/20 00:58:49;;;;;;;;;;;8.80;55.40;;;;;;5015401;28;19971;-79
2022/04/20 01:01:15;;;;;;;;;;;9.10;54.70;;;;;;5031194;28;19920;-79
2022/04/20 01:03:40;;;;;;;;;;;9.00;55.00;;;;;;5039705;28;19909;-78
2022/04/20 01:06:06;;;;;;;;;;;9.00;54.40;;;;;;5030638;28;20015;-78
2022/04/20 01:08:32;;;;;;;;;;;9.00;54.40;;;;;;5031514;28;20070;-78
2022/04/20 01:10:57;;;;;;;;;;;8.70;54.80;;;;;;5031559;28;19913;-78
2022/04/20 01:13:23;;;;;;;;;;;8.40;55.80;;;;;;5030624;28;20425;-78
2022/04/20 01:15:49;;;;;;;;;;;8.30;56.90;;;;;;5020550;28;20008;-78
2022/04/20 01:18:15;;;;;;;;;;;8.50;56.80;;;;;;5011438;28;19981;-78
2022/04/20 01:20:41;;;;;;;;;;;8.30;57.00;;;;;;5011875;28;19952;-78
2022/04/20 01:23:06;;;;;;;;;;;8.50;57.50;;;;;;5014374;28;20041;-79
2022/04/20 01:25:32;;;;;;;;;;;8.30;56.60;;;;;;5015520;28;19921;-79
2022/04/20 01:27:58;;;;;;;;;;;8.30;56.70;;;;;;5018275;28;19956;-78
2022/04/20 01:30:23;;;;;;;;;;;8.40;56.90;;;;;;5019017;28;19913;-79
2022/04/20 01:32:49;;;;;;;;;;;8.30;56.50;;;;;;5014586;28;19921;-78
2022/04/20 01:35:14;;;;;;;;;;;8.30;56.80;;;;;;5015864;28;19910;-78
2022/04/20 01:37:40;;;;;;;;;;;8.30;57.10;;;;;;5014314;28;20017;-79
2022/04/20 01:40:05;;;;;;;;;;;8.60;56.30;;;;;;5014935;28;19913;-78
2022/04/20 01:42:32;;;;;;;;;;;8.50;56.70;;;;;;5023251;28;19913;-78
2022/04/20 01:44:58;;;;;;;;;;;8.30;56.50;;;;;;5032985;28;19925;-78
2022/04/20 01:47:26;;;;;;;;;;;8.30;57.00;;;;;;5013185;28;19914;-78
2022/04/20 01:49:52;;;;;;;;;;;8.10;57.40;;;;;;5013694;28;19965;-78
2022/04/20 01:52:17;;;;;;;;;;;8.10;58.00;;;;;;5033972;28;19963;-79
2022/04/20 01:54:43;;;;;;;;;;;8.00;58.30;;;;;;5034156;28;19928;-79
2022/04/20 01:57:08;;;;;;;;;;;8.20;58.30;;;;;;5031453;28;19943;-78
2022/04/20 01:59:34;;;;;;;;;;;8.00;57.70;;;;;;5018488;28;19913;-78
2022/04/20 02:04:43;;;;;;;;;;;8.30;57.60;;;;;;5013510;28;20000;-78
2022/04/20 02:07:09;;;;;;;;;;;8.40;57.10;;;;;;5011783;28;19945;-78
2022/04/20 02:09:34;;;;;;;;;;;8.20;57.20;;;;;;5013926;28;19920;-78
2022/04/20 02:12:00;;;;;;;;;;;8.20;57.20;;;;;;5012045;28;19991;-78
2022/04/20 02:14:26;;;;;;;;;;;8.10;57.70;;;;;;5014142;28;19961;-78
2022/04/20 02:16:52;;;;;;;;;;;8.20;57.50;;;;;;5038647;28;19913;-78
2022/04/20 02:19:17;;;;;;;;;;;8.40;56.80;;;;;;5037784;28;19909;-78
2022/04/20 02:21:43;;;;;;;;;;;8.20;57.20;;;;;;5038125;28;20381;-78
2022/04/20 02:24:10;;;;;;;;;;;8.10;57.30;;;;;;5034634;28;19909;-78
2022/04/20 02:26:35;;;;;;;;;;;8.00;57.70;;;;;;5032788;28;19940;-78
2022/04/20 02:29:01;;;;;;;;;;;8.00;57.60;;;;;;5017153;28;19926;-78
2022/04/20 02:31:27;;;;;;;;;;;7.80;58.10;;;;;;5018535;28;19949;-78
2022/04/20 02:33:52;;;;;;;;;;;7.80;58.50;;;;;;5027039;28;19925;-79
2022/04/20 02:36:18;;;;;;;;;;;7.70;59.10;;;;;;5031942;28;19909;-79
2022/04/20 02:38:43;;;;;;;;;;;7.70;59.50;;;;;;5035711;28;20428;-78
2022/04/20 02:41:09;;;;;;;;;;;7.60;59.90;;;;;;5035606;28;20020;-79
2022/04/20 02:43:35;;;;;;;;;;;7.60;60.00;;;;;;5035567;28;19949;-78
2022/04/20 02:46:01;;;;;;;;;;;7.60;60.50;;;;;;5035986;28;19920;-79
2022/04/20 02:48:26;;;;;;;;;;;7.70;60.10;;;;;;5032743;28;19964;-78
2022/04/20 02:50:51;;;;;;;;;;;7.60;59.60;;;;;;5030445;28;20397;-79
2022/04/20 02:53:17;;;;;;;;;;;7.50;59.70;;;;;;5032358;28;19915;-79
2022/04/20 02:55:42;;;;;;;;;;;7.50;59.70;;;;;;5031272;28;19924;-78
2022/04/20 02:58:08;;;;;;;;;;;7.50;59.50;;;;;;5031430;28;19971;-78
2022/04/20 03:00:34;;;;;;;;;;;7.60;59.80;;;;;;5022107;28;20016;-78
2022/04/20 03:03:00;;;;;;;;;;;7.60;59.90;;;;;;4994508;28;20274;-79
2022/04/20 03:05:26;;;;;;;;;;;7.60;59.90;;;;;;5012866;28;20394;-78
2022/04/20 03:07:51;;;;;;;;;;;7.50;60.90;;;;;;5015632;28;19913;-78
2022/04/20 03:10:17;;;;;;;;;;;7.40;62.10;;;;;;5032963;28;19931;-79
2022/04/20 03:12:42;;;;;;;;;;;7.30;60.80;;;;;;5026724;28;20044;-79
2022/04/20 03:15:08;;;;;;;;;;;7.30;61.30;;;;;;5026987;28;19936;-78
2022/04/20 03:17:34;;;;;;;;;;;7.20;61.00;;;;;;5015853;28;19972;-78
2022/04/20 03:19:59;;;;;;;;;;;7.20;61.40;;;;;;5012251;28;19944;-78
2022/04/20 03:22:25;;;;;;;;;;;7.10;62.40;;;;;;5011143;28;19909;-79
2022/04/20 03:24:50;;;;;;;;;;;7.10;63.00;;;;;;5032835;28;19913;-79
2022/04/20 03:27:16;;;;;;;;;;;7.00;63.40;;;;;;5030795;28;20269;-79
2022/04/20 03:29:41;;;;;;;;;;;7.10;63.40;;;;;;5031877;28;19916;-79
2022/04/20 03:32:09;;;;;;;;;;;7.10;64.30;;;;;;5016576;28;19909;-78
2022/04/20 03:34:34;;;;;;;;;;;7.00;64.20;;;;;;5012472;28;20489;-79
2022/04/20 03:37:00;;;;;;;;;;;7.00;63.70;;;;;;5018039;28;19920;-79
2022/04/20 03:39:25;;;;;;;;;;;7.00;62.80;;;;;;5031829;28;19956;-80
2022/04/20 03:41:51;;;;;;;;;;;6.90;63.70;;;;;;5037291;28;19920;-80
2022/04/20 03:44:16;;;;;;;;;;;7.00;63.90;;;;;;5038617;28;19963;-78
2022/04/20 03:46:42;;;;;;;;;;;7.00;63.60;;;;;;5034172;28;19909;-78
2022/04/20 03:49:07;;;;;;;;;;;7.00;63.70;;;;;;5021603;28;19913;-78
2022/04/20 03:51:32;;;;;;;;;;;7.00;62.60;;;;;;5030823;28;20024;-79
2022/04/20 03:53:58;;;;;;;;;;;7.00;62.70;;;;;;5030981;28;19909;-78
2022/04/20 03:56:23;;;;;;;;;;;7.00;63.20;;;;;;5016915;28;19917;-79
2022/04/20 03:58:49;;;;;;;;;;;7.00;63.20;;;;;;5010443;28;20001;-78
2022/04/20 04:01:14;;;;;;;;;;;7.00;63.30;;;;;;5013018;28;19975;-78
2022/04/20 04:03:40;;;;;;;;;;;7.20;63.00;;;;;;5012213;28;20021;-78
2022/04/20 04:06:06;;;;;;;;;;;7.20;61.80;;;;;;5011157;28;20338;-78
2022/04/20 04:08:31;;;;;;;;;;;7.40;61.30;;;;;;5009755;28;19909;-79
2022/04/20 04:10:57;;;;;;;;;;;7.40;60.80;;;;;;5011151;28;19916;-78
2022/04/20 04:13:22;;;;;;;;;;;7.30;60.80;;;;;;5011922;28;19909;-78
2022/04/20 04:15:49;;;;;;;;;;;7.30;60.80;;;;;;5012007;28;19909;-79
2022/04/20 04:18:15;;;;;;;;;;;7.30;61.10;;;;;;5011276;28;19913;-79
2022/04/20 04:20:41;;;;;;;;;;;7.50;60.50;;;;;;5016983;28;19923;-78
2022/04/20 04:23:06;;;;;;;;;;;7.50;60.60;;;;;;5028915;28;19920;-78
2022/04/20 04:25:32;;;;;;;;;;;7.50;60.40;;;;;;5030715;28;19968;-78
2022/04/20 04:27:57;;;;;;;;;;;7.20;60.70;;;;;;5031097;28;19952;-78
2022/04/20 04:30:23;;;;;;;;;;;7.30;60.70;;;;;;5030054;28;19913;-78
2022/04/20 04:32:48;;;;;;;;;;;7.20;61.20;;;;;;5014446;28;19909;-78
2022/04/20 04:35:14;;;;;;;;;;;7.30;60.90;;;;;;5020436;28;20233;-78
2022/04/20 04:37:39;;;;;;;;;;;7.30;60.70;;;;;;5011587;28;20405;-78
2022/04/20 04:40:05;;;;;;;;;;;7.40;60.50;;;;;;5009950;28;19957;-78
2022/04/20 04:42:31;;;;;;;;;;;7.40;60.10;;;;;;5010431;28;20338;-77
2022/04/20 04:48:36;;;;;;;;;;;7.30;60.10;;;;;;5010643;28;19914;-78
2022/04/20 04:50:29;;;;;;;;;;;7.00;61.50;;;;;;5026462;28;20507;-78
2022/04/20 04:52:54;;;;;;;;;;;6.90;61.60;;;;;;5031101;28;19971;-79
2022/04/20 04:55:20;;;;;;;;;;;7.10;62.20;;;;;;5036352;28;20439;-79
2022/04/20 04:57:45;;;;;;;;;;;7.20;61.50;;;;;;5037401;28;19943;-79
2022/04/20 05:00:11;;;;;;;;;;;7.20;61.40;;;;;;5036711;28;19913;-79
2022/04/20 05:02:36;;;;;;;;;;;7.10;61.50;;;;;;5034679;28;19913;-78
2022/04/20 05:05:02;;;;;;;;;;;7.30;61.10;;;;;;5015928;28;19910;-79
2022/04/20 05:07:27;;;;;;;;;;;7.50;61.30;;;;;;5014776;28;20311;-79
2022/04/20 05:09:53;;;;;;;;;;;7.30;60.90;;;;;;5016304;28;19929;-79
2022/04/20 05:12:19;;;;;;;;;;;7.20;61.50;;;;;;5015038;28;19957;-78
2022/04/20 05:14:45;;;;;;;;;;;7.40;61.10;;;;;;5031573;28;19913;-78
2022/04/20 05:17:10;;;;;;;;;;;7.50;61.00;;;;;;5034226;28;20386;-78
2022/04/20 05:19:36;;;;;;;;;;;7.70;60.50;;;;;;5015133;28;20321;-79
2022/04/20 05:22:01;;;;;;;;;;;7.70;60.40;;;;;;5012934;28;19972;-78
2022/04/20 05:24:27;;;;;;;;;;;7.60;60.60;;;;;;5015188;28;19921;-78
2022/04/20 05:26:52;;;;;;;;;;;7.60;61.10;;;;;;5031600;28;19999;-79
2022/04/20 05:29:19;;;;;;;;;;;7.60;61.00;;;;;;5034095;28;20007;-78
2022/04/20 05:31:45;;;;;;;;;;;7.80;61.00;;;;;;5027204;28;19917;-79
2022/04/20 05:34:10;;;;;;;;;;;7.80;60.80;;;;;;5038269;28;20024;-78
2022/04/20 05:42:10;;;;;;;;;;;8.00;60.70;;;;;;5040086;28;20159;-78
2022/04/20 05:44:36;;;;;;;;;;;8.00;61.50;;;;;;5015647;28;20349;-78
2022/04/20 05:47:02;;;;;;;;;;;8.30;60.20;;;;;;5013285;28;19914;-79
2022/04/20 05:49:28;;;;;;;;;;;8.40;60.10;;;;;;5012052;28;20266;-79
2022/04/20 05:51:53;;;;;;;;;;;8.40;59.40;;;;;;5044442;28;19920;-79
2022/04/20 05:54:19;;;;;;;;;;;8.60;60.30;;;;;;5036309;28;19909;-79
2022/04/20 05:56:44;;;;;;;;;;;9.50;57.90;;;;;;5033709;28;20285;-78
2022/04/20 05:59:09;;;;;;;;;;;10.30;55.50;;;;;;5032063;28;20345;-79
2022/04/20 06:01:35;;;;;;;;;;;10.60;54.10;;;;;;5026754;28;19983;-78
2022/04/20 06:04:00;;;;;;;;;;;10.60;53.00;;;;;;5022830;28;20358;-78
2022/04/20 06:06:26;;;;;;;;;;;10.10;54.90;;;;;;5029824;28;20464;-78
2022/04/20 06:08:51;;;;;;;;;;;9.50;57.40;;;;;;5032242;28;19913;-79
2022/04/20 06:11:17;;;;;;;;;;;9.10;58.40;;;;;;5013942;28;20012;-78
2022/04/20 06:13:42;;;;;;;;;;;9.00;59.60;;;;;;5024607;28;19913;-78
2022/04/20 06:16:08;;;;;;;;;;;8.80;59.40;;;;;;5018851;28;20565;-78
2022/04/20 06:18:35;;;;;;;;;;;8.80;60.00;;;;;;5014602;28;19924;-80
2022/04/20 06:21:01;;;;;;;;;;;8.80;59.80;;;;;;5008135;28;19922;-80
2022/04/20 06:23:27;;;;;;;;;;;8.80;61.30;;;;;;5011093;28;19917;-81
2022/04/20 06:25:55;;;;;;;;;;;8.80;60.90;;;;;;5016953;28;19913;-79
2022/04/20 06:28:23;;;;;;;;;;;8.80;60.10;;;;;;5021264;28;19996;-80
2022/04/20 06:30:49;;;;;;;;;;;8.90;61.10;;;;;;5031602;28;19913;-80
2022/04/20 06:33:14;;;;;;;;;;;9.00;60.30;;;;;;5033156;28;19967;-80
2022/04/20 06:35:40;;;;;;;;;;;9.10;60.30;;;;;;5035788;28;20028;-79
2022/04/20 06:38:05;;;;;;;;;;;9.10;59.50;;;;;;5029493;28;19920;-78
2022/04/20 06:40:31;;;;;;;;;;;9.10;59.80;;;;;;5014286;28;19913;-78
2022/04/20 06:42:56;;;;;;;;;;;9.10;59.20;;;;;;5011280;28;19918;-79
2022/04/20 06:45:22;;;;;;;;;;;9.20;59.00;;;;;;5012753;28;19921;-80
2022/04/20 06:47:47;;;;;;;;;;;9.30;58.60;;;;;;5012964;28;19913;-79
2022/04/20 06:50:13;;;;;;;;;;;9.30;59.40;;;;;;5025020;28;19932;-80
2022/04/20 07:00:51;;;;;;;;;;;9.60;58.20;;;;;;5014979;28;19932;-80
2022/04/20 07:03:16;;;;;;;;;;;9.70;56.30;;;;;;5013795;28;20337;-81
2022/04/20 07:05:42;;;;;;;;;;;9.70;57.40;;;;;;5010644;28;20012;-79
2022/04/20 07:08:07;;;;;;;;;;;9.80;55.80;;;;;;5013225;28;19917;-80
2022/04/20 07:10:33;;;;;;;;;;;9.90;56.80;;;;;;5026226;28;19913;-81
2022/04/20 07:12:58;;;;;;;;;;;10.10;57.70;;;;;;5010326;28;19920;-82
2022/04/20 07:15:25;;;;;;;;;;;10.10;57.80;;;;;;5006684;28;19913;-79
2022/04/20 07:17:50;;;;;;;;;;;10.20;58.30;;;;;;5024871;28;19924;-81
2022/04/20 07:20:19;;;;;;;;;;;10.40;55.40;;;;;;5030840;28;19917;-81
2022/04/20 07:22:50;;;;;;;;;;;10.50;55.60;;;;;;5029696;28;20271;-81
2022/04/20 07:25:17;;;;;;;;;;;10.50;56.60;;;;;;5033423;28;19931;-81
2022/04/20 07:27:42;;;;;;;;;;;10.60;55.70;;;;;;5032936;28;20002;-80
2022/04/20 07:30:08;;;;;;;;;;;10.60;55.40;;;;;;5030387;28;19939;-81
2022/04/20 07:32:34;;;;;;;;;;;10.50;56.50;;;;;;5030511;28;19920;-81
2022/04/20 07:35:00;;;;;;;;;;;10.60;54.80;;;;;;5032874;28;19909;-81
2022/04/20 07:37:25;;;;;;;;;;;10.80;54.20;;;;;;5030992;28;19910;-81
2022/04/20 07:39:50;;;;;;;;;;;10.90;54.40;;;;;;5033008;28;19976;-81
2022/04/20 07:42:16;;;;;;;;;;;11.00;55.00;;;;;;5037842;28;19913;-81
2022/04/20 07:44:41;;;;;;;;;;;11.00;53.90;;;;;;5039526;28;19909;-81
2022/04/20 07:47:07;;;;;;;;;;;11.10;56.70;;;;;;5036528;28;19972;-80
2022/04/20 07:52:19;;;;;;;;;;;11.30;52.70;;;;;;5046896;28;20098;-81
2022/04/20 07:54:45;;;;;;;;;;;11.40;54.70;;;;;;5047057;28;20004;-81
2022/04/20 07:57:14;;;;;;;;;;;11.50;54.10;;;;;;5026570;28;19960;-80
2022/04/20 07:59:40;;;;;;;;;;;11.60;53.00;;;;;;5029737;28;19915;-80
2022/04/20 08:02:06;;;;;;;;;;;11.50;51.50;;;;;;5014736;28;20321;-81
2022/04/20 08:04:31;;;;;;;;;;;11.60;53.00;;;;;;5011962;28;20011;-81
2022/04/20 08:06:57;;;;;;;;;;;11.60;52.60;;;;;;5011565;28;19910;-81
2022/04/20 08:09:23;;;;;;;;;;;11.60;51.80;;;;;;5018007;28;19924;-79
2022/04/20 08:11:48;;;;;;;;;;;11.70;53.30;;;;;;5030961;28;19948;-80
2022/04/20 08:14:14;;;;;;;;;;;11.80;51.50;;;;;;5029820;28;19921;-80
2022/04/20 08:16:41;;;;;;;;;;;12.00;52.80;;;;;;5030347;28;19989;-80
2022/04/20 08:19:07;;;;;;;;;;;12.00;49.70;;;;;;5031494;28;20016;-79
2022/04/20 08:21:33;;;;;;;;;;;12.10;50.10;;;;;;5030262;28;20050;-80
2022/04/20 08:23:58;;;;;;;;;;;12.10;50.60;;;;;;5024470;28;20400;-79
2022/04/20 08:26:24;;;;;;;;;;;12.10;49.70;;;;;;5048167;28;19995;-78
2022/04/20 08:28:49;;;;;;;;;;;12.20;49.60;;;;;;5027351;28;20007;-79
2022/04/20 08:31:15;;;;;;;;;;;12.20;49.60;;;;;;5009716;28;19910;-80
2022/04/20 08:33:41;;;;;;;;;;;12.20;49.40;;;;;;5010978;28;19989;-81
2022/04/20 08:36:07;;;;;;;;;;;12.30;47.50;;;;;;5011331;28;19925;-81
2022/04/20 08:38:32;;;;;;;;;;;12.40;47.30;;;;;;5010935;28;19995;-80
2022/04/20 08:40:59;;;;;;;;;;;12.50;50.50;;;;;;5011529;28;19921;-81
2022/04/20 08:43:24;;;;;;;;;;;12.50;49.10;;;;;;5013716;28;20015;-79
2022/04/20 08:45:52;;;;;;;;;;;12.70;50.60;;;;;;5014777;28;19914;-79
2022/04/20 08:48:18;;;;;;;;;;;12.80;49.00;;;;;;5009467;28;19932;-80
2022/04/20 08:50:44;;;;;;;;;;;12.80;48.70;;;;;;5009342;28;20294;-81
2022/04/20 08:53:10;;;;;;;;;;;12.90;49.80;;;;;;5010695;28;19913;-80
2022/04/20 08:55:35;;;;;;;;;;;12.90;49.10;;;;;;5011321;28;20377;-81
2022/04/20 08:58:02;;;;;;;;;;;13.00;45.80;;;;;;5010116;28;19921;-79
2022/04/20 09:00:28;;;;;;;;;;;13.10;45.90;;;;;;5010379;28;19914;-80
2022/04/20 09:02:55;;;;;;;;;;;13.10;46.50;;;;;;5008888;28;19935;-81
2022/04/20 09:05:21;;;;;;;;;;;13.10;47.40;;;;;;5009285;28;20370;-79
2022/04/20 09:07:47;;;;;;;;;;;13.30;49.00;;;;;;5010381;28;20012;-79
2022/04/20 09:10:13;;;;;;;;;;;13.30;45.00;;;;;;5010231;28;19983;-81
2022/04/20 09:12:42;;;;;;;;;;;13.30;46.70;;;;;;5010352;28;19917;-80
2022/04/20 09:15:09;;;;;;;;;;;13.40;46.20;;;;;;5029821;28;20447;-79
2022/04/20 09:17:44;;;;;;;;;;;13.40;43.70;;;;;;5029508;28;19909;-81
2022/04/20 09:20:15;;;;;;;;;;;13.30;44.80;;;;;;5029945;28;19975;-81
2022/04/20 09:22:40;;;;;;;;;;;13.50;46.90;;;;;;5029571;28;20412;-81
2022/04/20 09:25:15;;;;;;;;;;;13.60;47.80;;;;;;5030128;28;19909;-81
2022/04/20 09:27:42;;;;;;;;;;;13.80;45.40;;;;;;5030316;28;19910;-80
2022/04/20 09:30:10;;;;;;;;;;;13.70;41.50;;;;;;5029391;28;19913;-79
2022/04/20 09:32:39;;;;;;;;;;;13.70;44.10;;;;;;5010269;28;19913;-80
2022/04/20 09:35:07;;;;;;;;;;;13.80;42.20;;;;;;5011076;28;19932;-79
2022/04/20 09:37:33;;;;;;;;;;;13.80;45.20;;;;;;5028044;28;19948;-79
2022/04/20 09:39:58;;;;;;;;;;;13.70;45.00;;;;;;5029956;28;20300;-79
2022/04/20 09:42:24;;;;;;;;;;;13.80;44.70;;;;;;5032553;28;19913;-79
2022/04/20 09:44:54;;;;;;;;;;;13.80;46.00;;;;;;5033730;28;19956;-79
2022/04/20 09:50:08;;;;;;;;;;;14.10;45.50;;;;;;5019671;28;19983;-79
2022/04/20 09:52:38;;;;;;;;;;;14.10;44.70;;;;;;5019320;28;20519;-79
2022/04/20 09:55:05;;;;;;;;;;;13.90;42.50;;;;;;5013374;28;19909;-80
2022/04/20 09:57:31;;;;;;;;;;;14.00;43.20;;;;;;5013199;28;19917;-78
2022/04/20 09:59:56;;;;;;;;;;;14.10;45.90;;;;;;5016000;28;20335;-80
2022/04/20 10:02:22;;;;;;;;;;;14.10;42.60;;;;;;5011917;28;19910;-80
2022/04/20 10:04:48;;;;;;;;;;;14.10;44.30;;;;;;5013306;28;19967;-80
2022/04/20 10:07:14;;;;;;;;;;;14.20;43.70;;;;;;5021608;28;19968;-80
2022/04/20 10:09:39;;;;;;;;;;;14.30;46.60;;;;;;5032322;28;20381;-80
2022/04/20 10:12:06;;;;;;;;;;;14.20;42.90;;;;;;5032797;28;19909;-79
2022/04/20 10:17:20;;;;;;;;;;;14.20;46.70;;;;;;5032150;28;20133;-78
2022/04/20 10:19:47;;;;;;;;;;;14.10;44.60;;;;;;5032496;28;19968;-80
2022/04/20 10:22:15;;;;;;;;;;;14.20;46.10;;;;;;5030330;28;19924;-79
2022/04/20 10:24:42;;;;;;;;;;;14.20;42.70;;;;;;5032967;28;19956;-80
2022/04/20 10:27:40;;;;;;;;;;;14.20;42.50;;;;;;5030827;28;20059;-81
2022/04/20 10:30:10;;;;;;;;;;;14.20;43.80;;;;;;5016332;28;20335;-79
2022/04/20 10:32:58;;;;;;;;;;;14.30;43.50;;;;;;5012771;28;20367;-78
2022/04/20 10:35:23;;;;;;;;;;;14.30;44.70;;;;;;5021329;28;20004;-80
2022/04/20 10:38:07;;;;;;;;;;;14.30;45.80;;;;;;5012700;28;19949;-80
2022/04/20 10:40:33;;;;;;;;;;;14.40;45.20;;;;;;5012375;28;19921;-80
2022/04/20 10:43:19;;;;;;;;;;;14.50;44.50;;;;;;5012165;28;19914;-79
2022/04/20 10:46:03;;;;;;;;;;;14.50;43.00;;;;;;5013018;28;19913;-80
2022/04/20 10:48:42;;;;;;;;;;;14.40;42.20;;;;;;5013448;28;20210;-79
2022/04/20 10:51:12;;;;;;;;;;;14.50;43.30;;;;;;5011537;28;19917;-81
2022/04/20 10:53:38;;;;;;;;;;;14.50;42.30;;;;;;5011739;28;19996;-80
2022/04/20 10:56:03;;;;;;;;;;;14.60;42.50;;;;;;5013475;28;20333;-82
2022/04/20 10:58:29;;;;;;;;;;;14.60;40.60;;;;;;5011036;28;20359;-81
2022/04/20 11:01:11;;;;;;;;;;;14.60;42.20;;;;;;5011027;28;19913;-78
2022/04/20 11:03:55;;;;;;;;;;;14.60;41.60;;;;;;5011641;28;19974;-81
2022/04/20 11:06:25;;;;;;;;;;;14.70;43.30;;;;;;5012457;28;19913;-81
2022/04/20 11:08:51;;;;;;;;;;;14.80;44.30;;;;;;5010312;28;20272;-81
2022/04/20 11:19:52;;;;;;;;;;;14.80;44.90;;;;;;5012200;28;20316;-80
2022/04/20 11:22:18;;;;;;;;;;;14.90;44.20;;;;;;5009734;28;19918;-80
2022/04/20 11:24:44;;;;;;;;;;;14.90;43.30;;;;;;5010656;28;20297;-81
2022/04/20 11:27:11;;;;;;;;;;;14.90;43.60;;;;;;5011758;28;19916;-80
2022/04/20 11:29:36;;;;;;;;;;;15.00;46.50;;;;;;5011735;28;20327;-84
2022/04/20 11:32:03;;;;;;;;;;;15.10;41.40;;;;;;5010861;28;20004;-80
2022/04/20 11:34:33;;;;;;;;;;;15.10;42.50;;;;;;5011738;28;19910;-79
2022/04/20 11:37:00;;;;;;;;;;;15.10;42.30;;;;;;5014818;28;19909;-81
2022/04/20 11:39:26;;;;;;;;;;;15.10;42.60;;;;;;5013178;28;19920;-82
2022/04/20 11:41:53;;;;;;;;;;;15.10;45.40;;;;;;5032204;28;19917;-79
2022/04/20 11:44:19;;;;;;;;;;;15.40;42.90;;;;;;5031865;28;20019;-81
2022/04/20 11:46:45;;;;;;;;;;;15.30;41.50;;;;;;5030982;28;19913;-79
2022/04/20 11:49:11;;;;;;;;;;;15.20;42.90;;;;;;5033549;28;19940;-79
2022/04/20 11:51:36;;;;;;;;;;;15.30;44.40;;;;;;5031369;28;19921;-82
2022/04/20 11:54:02;;;;;;;;;;;15.40;41.90;;;;;;5037929;28;19935;-81
2022/04/20 11:56:37;;;;;;;;;;;15.50;42.50;;;;;;5034783;28;19913;-81
2022/04/20 11:59:04;;;;;;;;;;;15.40;41.30;;;;;;5018435;28;19913;-81
2022/04/20 12:01:30;;;;;;;;;;;15.50;40.50;;;;;;5015139;28;19913;-80
2022/04/20 12:03:56;;;;;;;;;;;15.50;41.20;;;;;;5012143;28;20295;-80
2022/04/20 12:06:23;;;;;;;;;;;15.40;41.50;;;;;;5012399;28;19967;-81
2022/04/20 12:08:51;;;;;;;;;;;15.40;40.20;;;;;;5011750;28;19917;-81
2022/04/20 12:11:17;;;;;;;;;;;15.50;40.70;;;;;;5013236;28;19918;-81
2022/04/20 12:13:42;;;;;;;;;;;15.50;40.80;;;;;;5011236;28;19965;-81
2022/04/20 12:16:12;;;;;;;;;;;15.40;39.40;;;;;;5016550;28;19921;-81
2022/04/20 12:18:43;;;;;;;;;;;15.40;44.50;;;;;;5035662;28;19917;-81
2022/04/20 12:21:27;;;;;;;;;;;15.70;45.00;;;;;;5038162;28;20320;-80
2022/04/20 12:23:53;;;;;;;;;;;15.90;44.00;;;;;;5036016;28;19962;-80
2022/04/20 12:26:28;;;;;;;;;;;15.80;45.70;;;;;;5031718;28;19955;-80
2022/04/20 12:29:01;;;;;;;;;;;15.90;42.10;;;;;;5030747;28;19909;-81
2022/04/20 12:31:27;;;;;;;;;;;15.80;41.50;;;;;;5015528;28;19959;-80
2022/04/20 12:34:00;;;;;;;;;;;15.60;42.30;;;;;;5011024;28;19913;-82
2022/04/20 12:36:26;;;;;;;;;;;15.60;42.60;;;;;;5011026;28;19913;-81
2022/04/20 12:38:51;;;;;;;;;;;15.80;45.30;;;;;;5011491;28;19910;-79
2022/04/20 12:41:36;;;;;;;;;;;15.90;44.80;;;;;;5028205;28;19921;-81
2022/04/20 12:44:03;;;;;;;;;;;16.10;45.10;;;;;;5029762;28;20366;-81
2022/04/20 12:46:35;;;;;;;;;;;16.00;43.90;;;;;;5029752;28;19917;-81
2022/04/20 12:49:01;;;;;;;;;;;16.00;41.70;;;;;;5029642;28;19909;-81
2022/04/20 12:51:26;;;;;;;;;;;16.00;43.80;;;;;;5031217;28;19929;-81
2022/04/20 12:53:54;;;;;;;;;;;16.10;42.50;;;;;;5031103;28;19909;-82
2022/04/20 13:02:02;;;;;;;;;;;16.10;43.20;;;;;;5033249;28;20337;-81
2022/04/20 13:04:28;;;;;;;;;;;16.00;44.20;;;;;;5033509;28;19928;-81
2022/04/20 13:06:55;;;;;;;;;;;16.00;44.10;;;;;;5021675;28;19910;-81
2022/04/20 13:09:20;;;;;;;;;;;15.90;44.80;;;;;;5013694;28;20266;-83
2022/04/20 13:11:46;;;;;;;;;;;16.00;45.20;;;;;;5015386;28;19909;-81
2022/04/20 13:14:11;;;;;;;;;;;16.20;46.20;;;;;;5028800;28;19932;-80
2022/04/20 13:16:37;;;;;;;;;;;16.20;45.50;;;;;;5035941;28;19913;-79
2022/04/20 13:19:03;;;;;;;;;;;16.30;44.90;;;;;;5036067;28;19909;-80
2022/04/20 13:21:29;;;;;;;;;;;16.10;43.50;;;;;;5036694;28;19917;-80
2022/04/20 13:23:55;;;;;;;;;;;16.00;43.10;;;;;;5037777;28;19935;-80
2022/04/20 13:29:05;;;;;;;;;;;16.00;44.10;;;;;;5036151;28;19971;-80
2022/04/20 13:31:31;;;;;;;;;;;16.10;45.10;;;;;;5035982;28;20269;-79
2022/04/20 13:33:57;;;;;;;;;;;16.10;45.90;;;;;;5017073;28;20489;-79
2022/04/20 13:36:22;;;;;;;;;;;16.20;47.30;;;;;;5016898;28;19957;-80
2022/04/20 13:38:48;;;;;;;;;;;16.30;45.20;;;;;;5041848;28;19909;-80
2022/04/20 13:41:14;;;;;;;;;;;16.30;44.60;;;;;;5043507;28;19956;-81
2022/04/20 13:43:40;;;;;;;;;;;16.20;43.40;;;;;;5036537;28;19917;-80
2022/04/20 13:46:05;;;;;;;;;;;16.30;43.50;;;;;;5037386;28;19909;-79
2022/04/20 13:48:31;;;;;;;;;;;16.40;43.10;;;;;;5034168;28;20247;-79
2022/04/20 13:50:56;;;;;;;;;;;16.40;44.70;;;;;;5034961;28;19932;-79
2022/04/20 13:53:22;;;;;;;;;;;16.40;47.30;;;;;;5030172;28;19917;-79
2022/04/20 13:55:47;;;;;;;;;;;16.50;45.50;;;;;;5016146;28;19909;-79
2022/04/20 13:58:14;;;;;;;;;;;16.40;44.50;;;;;;5016112;28;19909;-81
2022/04/20 14:00:40;;;;;;;;;;;16.50;44.60;;;;;;5017036;28;19918;-81
2022/04/20 14:03:07;;;;;;;;;;;16.40;45.40;;;;;;5014173;28;19917;-79
2022/04/20 14:05:32;;;;;;;;;;;16.60;46.70;;;;;;5013638;28;19913;-81
2022/04/20 14:07:57;;;;;;;;;;;16.50;45.90;;;;;;5012013;28;19909;-79
2022/04/20 14:10:24;;;;;;;;;;;16.60;47.10;;;;;;5011567;28;19918;-80
2022/04/20 14:12:49;;;;;;;;;;;16.60;45.30;;;;;;5017919;28;19934;-79
2022/04/20 14:15:17;;;;;;;;;;;16.60;44.20;;;;;;5033925;28;19988;-78
2022/04/20 14:17:44;;;;;;;;;;;16.50;44.10;;;;;;5032694;28;19909;-79
2022/04/20 14:20:11;;;;;;;;;;;16.40;44.20;;;;;;5033526;28;20349;-80
2022/04/20 14:22:40;;;;;;;;;;;16.50;46.30;;;;;;5033972;28;20403;-79
2022/04/20 14:33:27;;;;;;;;;;;16.50;47.80;;;;;;5015044;28;19917;-79
2022/04/20 14:35:53;;;;;;;;;;;16.30;46.20;;;;;;5015367;28;20307;-79
2022/04/20 14:38:20;;;;;;;;;;;16.50;49.10;;;;;;5013301;28;19960;-81
2022/04/20 14:40:46;;;;;;;;;;;16.40;47.70;;;;;;5013810;28;20302;-80
2022/04/20 14:43:12;;;;;;;;;;;16.40;45.80;;;;;;5026400;28;19913;-81
2022/04/20 14:45:38;;;;;;;;;;;16.40;45.30;;;;;;5034939;28;19925;-81
2022/04/20 14:48:04;;;;;;;;;;;16.40;44.80;;;;;;5033536;28;19970;-80
2022/04/20 14:50:30;;;;;;;;;;;16.20;46.00;;;;;;5033572;28;19939;-79
2022/04/20 14:52:56;;;;;;;;;;;16.30;45.10;;;;;;5023442;28;20377;-80
2022/04/20 14:55:22;;;;;;;;;;;16.30;45.90;;;;;;5028844;28;19924;-79
2022/04/20 14:57:48;;;;;;;;;;;16.20;47.40;;;;;;5032764;28;19909;-79
2022/04/20 15:00:14;;;;;;;;;;;16.20;45.40;;;;;;5034359;28;19979;-80
2022/04/20 15:02:41;;;;;;;;;;;16.20;45.80;;;;;;5031233;28;19913;-81
2022/04/20 15:05:06;;;;;;;;;;;16.20;46.70;;;;;;5038786;28;19932;-81
2022/04/20 15:07:32;;;;;;;;;;;16.30;45.80;;;;;;5013566;28;19990;-78
2022/04/20 15:09:58;;;;;;;;;;;16.40;45.80;;;;;;5018270;28;19957;-81
2022/04/20 15:12:26;;;;;;;;;;;16.40;46.50;;;;;;5014622;28;19952;-81